Time;durP1;ratioP1;P1;durP2;ratioP2;P2;SDS_P1;SDS_P2;PMS_P1;PMS_P2;Temp;Humidity;BMP_temperature;BMP_pressure;BME280_temperature;BME280_humidity;BME280_pressure;Samples;Min_cycle;Max_cycle;Signal;HPM_P1;HPM_P2
2022/05/31 00:00:07;;;;;;;2.40;2.30;;;;;;;;;;5096539;28;20799;-64
2022/05/31 00:02:33;;;;;;;2.20;2.10;;;;;;;;;;5096510;28;20401;-64
2022/05/31 00:04:59;;;;;;;2.17;1.97;;;;;;;;;;5096440;28;20401;-64
2022/05/31 00:07:25;;;;;;;8.03;2.40;;;;;;;;;;5096345;28;20482;-64
2022/05/31 00:09:51;;;;;;;2.37;2.27;;;;;;;;;;5096407;28;20900;-65
2022/05/31 00:12:17;;;;;;;2.10;2.07;;;;;;;;;;5096308;28;20895;-64
2022/05/31 00:14:43;;;;;;;2.40;2.30;;;;;;;;;;5096308;28;20791;-64
2022/05/31 00:17:09;;;;;;;2.47;2.33;;;;;;;;;;5096326;28;20424;-64
2022/05/31 00:19:35;;;;;;;2.47;2.37;;;;;;;;;;5096179;28;20413;-64
2022/05/31 00:22:01;;;;;;;2.30;2.23;;;;;;;;;;5096117;28;20445;-64
2022/05/31 00:24:27;;;;;;;2.87;2.67;;;;;;;;;;5096174;28;20400;-64
2022/05/31 00:26:53;;;;;;;2.50;2.30;;;;;;;;;;5096155;28;20421;-64
2022/05/31 00:29:19;;;;;;;2.20;2.20;;;;;;;;;;5096056;28;20471;-64
2022/05/31 00:31:47;;;;;;;2.70;2.50;;;;;;;;;;5077801;28;20417;-64
2022/05/31 00:34:13;;;;;;;3.23;2.40;;;;;;;;;;5095993;28;20811;-64
2022/05/31 00:36:41;;;;;;;2.60;2.50;;;;;;;;;;5095746;28;20410;-64
2022/05/31 00:39:07;;;;;;;2.73;2.63;;;;;;;;;;5095841;28;20457;-65
2022/05/31 00:41:34;;;;;;;3.90;2.20;;;;;;;;;;5095829;28;20504;-65
2022/05/31 00:44:26;;;;;;;2.40;2.30;;;;;;;;;;5096075;28;20401;-65
2022/05/31 00:46:57;;;;;;;2.60;2.40;;;;;;;;;;5095976;28;20457;-65
2022/05/31 00:49:32;;;;;;;2.63;2.43;;;;;;;;;;5095615;28;20461;-65
2022/05/31 00:52:00;;;;;;;2.60;2.50;;;;;;;;;;5077402;28;20915;-65
2022/05/31 00:54:27;;;;;;;2.97;2.80;;;;;;;;;;5095581;28;20412;-65
2022/05/31 00:56:54;;;;;;;2.70;2.50;;;;;;;;;;5095858;28;20794;-65
2022/05/31 00:59:22;;;;;;;2.37;2.27;;;;;;;;;;5095465;28;20821;-65
2022/05/31 01:01:51;;;;;;;3.77;2.53;;;;;;;;;;5077308;28;20479;-65
2022/05/31 01:04:18;;;;;;;2.80;2.50;;;;;;;;;;5095591;28;20405;-65
2022/05/31 01:06:44;;;;;;;2.73;2.63;;;;;;;;;;5095232;28;20421;-65
2022/05/31 01:09:10;;;;;;;2.40;2.30;;;;;;;;;;5095037;28;20470;-65
2022/05/31 01:11:38;;;;;;;2.23;2.20;;;;;;;;;;5095191;28;20409;-65
2022/05/31 01:14:05;;;;;;;2.80;2.60;;;;;;;;;;5077321;28;20455;-65
2022/05/31 01:16:31;;;;;;;2.77;2.30;;;;;;;;;;5076968;28;20441;-65
2022/05/31 01:18:57;;;;;;;2.97;2.83;;;;;;;;;;5095199;28;20401;-65
2022/05/31 01:21:23;;;;;;;2.37;2.27;;;;;;;;;;5076755;28;20432;-65
2022/05/31 01:23:57;;;;;;;2.30;2.30;;;;;;;;;;5095054;28;20535;-65
2022/05/31 01:26:26;;;;;;;2.73;2.53;;;;;;;;;;5094986;28;20400;-65
2022/05/31 01:28:55;;;;;;;2.60;2.40;;;;;;;;;;5094810;28;20533;-65
2022/05/31 01:31:24;;;;;;;4.07;3.17;;;;;;;;;;5094842;28;20401;-64
2022/05/31 01:34:03;;;;;;;2.30;2.20;;;;;;;;;;5094765;28;20393;-65
2022/05/31 01:36:34;;;;;;;2.70;2.07;;;;;;;;;;5094726;28;20895;-65
2022/05/31 01:39:02;;;;;;;2.13;2.13;;;;;;;;;;5094748;28;20405;-65
2022/05/31 01:41:46;;;;;;;4.57;2.53;;;;;;;;;;5094677;28;20773;-64
2022/05/31 01:44:14;;;;;;;2.90;2.63;;;;;;;;;;5094660;28;20405;-65
2022/05/31 01:46:41;;;;;;;4.53;2.30;;;;;;;;;;5094406;28;20857;-65
2022/05/31 01:49:09;;;;;;;2.50;2.30;;;;;;;;;;5094317;28;20494;-65
2022/05/31 01:51:36;;;;;;;2.80;2.70;;;;;;;;;;5094624;28;20423;-65
2022/05/31 01:54:02;;;;;;;2.57;2.43;;;;;;;;;;5094395;28;20459;-65
2022/05/31 01:56:29;;;;;;;2.90;2.70;;;;;;;;;;5094296;28;20409;-65
2022/05/31 01:58:56;;;;;;;3.03;2.80;;;;;;;;;;5076122;28;20949;-65
2022/05/31 02:01:23;;;;;;;2.00;2.00;;;;;;;;;;5094276;28;20414;-65
2022/05/31 02:03:49;;;;;;;2.60;2.40;;;;;;;;;;5094215;28;20417;-65
2022/05/31 02:06:24;;;;;;;2.63;2.53;;;;;;;;;;5094153;28;20454;-64
2022/05/31 02:08:50;;;;;;;6.50;2.23;;;;;;;;;;5094062;28;20476;-65
2022/05/31 02:11:16;;;;;;;2.93;2.77;;;;;;;;;;5094167;28;20773;-65
2022/05/31 02:13:42;;;;;;;2.90;2.80;;;;;;;;;;5094154;28;20398;-65
2022/05/31 02:16:08;;;;;;;3.87;3.40;;;;;;;;;;5094103;28;20454;-64
2022/05/31 02:21:19;;;;;;;3.13;3.03;;;;;;;;;;5093389;28;20424;-65
2022/05/31 02:23:45;;;;;;;2.80;2.70;;;;;;;;;;5093952;28;20413;-65
2022/05/31 02:26:11;;;;;;;3.90;3.30;;;;;;;;;;5093817;28;20462;-65
2022/05/31 02:28:36;;;;;;;3.30;3.03;;;;;;;;;;5094009;28;20459;-64
2022/05/31 02:31:03;;;;;;;3.03;2.83;;;;;;;;;;5094078;28;20412;-65
2022/05/31 02:33:29;;;;;;;3.00;2.80;;;;;;;;;;5093746;28;20398;-64
2022/05/31 02:35:55;;;;;;;3.23;3.03;;;;;;;;;;5093668;28;20413;-65
2022/05/31 02:38:21;;;;;;;3.03;2.83;;;;;;;;;;5093776;28;20433;-65
2022/05/31 02:40:47;;;;;;;3.00;2.90;;;;;;;;;;5075612;28;20429;-65
2022/05/31 02:43:13;;;;;;;3.20;3.00;;;;;;;;;;5093703;28;20755;-65
2022/05/31 02:45:39;;;;;;;2.63;2.63;;;;;;;;;;5093470;28;20832;-64
2022/05/31 02:48:05;;;;;;;2.70;2.50;;;;;;;;;;5093554;28;20507;-65
2022/05/31 02:50:31;;;;;;;2.80;2.70;;;;;;;;;;5075398;28;20449;-65
2022/05/31 02:52:57;;;;;;;2.97;2.87;;;;;;;;;;5093559;28;20449;-65
2022/05/31 02:55:23;;;;;;;3.00;2.80;;;;;;;;;;5093633;28;20401;-65
2022/05/31 02:57:49;;;;;;;2.50;2.50;;;;;;;;;;5093515;28;20846;-65
2022/05/31 03:00:15;;;;;;;2.90;2.70;;;;;;;;;;5075411;28;20413;-65
2022/05/31 03:02:41;;;;;;;3.00;2.90;;;;;;;;;;5093499;28;20420;-65
2022/05/31 03:05:07;;;;;;;2.73;2.63;;;;;;;;;;5075352;28;20425;-64
2022/05/31 03:07:33;;;;;;;3.27;3.07;;;;;;;;;;5093306;28;20417;-65
2022/05/31 03:09:59;;;;;;;3.07;2.97;;;;;;;;;;5093549;28;20420;-65
2022/05/31 03:12:27;;;;;;;3.00;2.90;;;;;;;;;;5093597;28;20404;-65
2022/05/31 03:14:55;;;;;;;2.60;2.50;;;;;;;;;;5093537;28;20922;-65
2022/05/31 03:17:25;;;;;;;8.60;3.50;;;;;;;;;;5075281;28;20413;-64
2022/05/31 03:20:03;;;;;;;2.80;2.70;;;;;;;;;;5075208;28;20474;-65
2022/05/31 03:22:32;;;;;;;2.77;2.67;;;;;;;;;;5093272;28;20507;-65
2022/05/31 03:25:03;;;;;;;2.97;2.77;;;;;;;;;;5093277;28;20401;-65
2022/05/31 03:27:29;;;;;;;3.27;3.07;;;;;;;;;;5075072;28;20420;-64
2022/05/31 03:29:56;;;;;;;2.80;2.67;;;;;;;;;;5093149;28;20468;-65
2022/05/31 03:32:22;;;;;;;5.60;2.77;;;;;;;;;;5093779;28;20408;-65
2022/05/31 03:34:49;;;;;;;3.43;2.93;;;;;;;;;;5097144;28;20398;-64
2022/05/31 03:37:15;;;;;;;2.50;2.50;;;;;;;;;;5097045;28;20904;-65
2022/05/31 03:39:41;;;;;;;2.80;2.70;;;;;;;;;;5097014;28;20426;-65
2022/05/31 03:42:07;;;;;;;3.17;3.07;;;;;;;;;;5097032;28;20409;-65
2022/05/31 03:44:33;;;;;;;2.40;2.40;;;;;;;;;;5096736;28;20880;-65
2022/05/31 03:47:04;;;;;;;2.73;2.63;;;;;;;;;;5096837;28;20397;-65
2022/05/31 03:49:31;;;;;;;3.07;2.97;;;;;;;;;;5096760;28;20456;-64
2022/05/31 03:51:57;;;;;;;10.40;8.77;;;;;;;;;;5096674;28;20409;-65
2022/05/31 03:54:23;;;;;;;6.50;6.10;;;;;;;;;;5096976;28;20405;-65
2022/05/31 03:56:49;;;;;;;17.37;12.13;;;;;;;;;;5096691;28;20411;-64
2022/05/31 03:59:15;;;;;;;6.67;6.07;;;;;;;;;;5096591;28;20492;-64
2022/05/31 04:01:41;;;;;;;3.97;3.00;;;;;;;;;;5096636;28;20409;-63
2022/05/31 04:04:08;;;;;;;3.50;3.40;;;;;;;;;;5096508;28;20436;-63
2022/05/31 04:06:35;;;;;;;3.40;3.30;;;;;;;;;;5096510;28;20417;-63
2022/05/31 04:09:02;;;;;;;4.07;3.60;;;;;;;;;;5096392;28;20469;-63
2022/05/31 04:11:28;;;;;;;2.83;2.63;;;;;;;;;;5078128;28;20834;-63
2022/05/31 04:13:54;;;;;;;7.30;3.37;;;;;;;;;;5096400;28;20417;-63
2022/05/31 04:16:20;;;;;;;2.83;2.73;;;;;;;;;;5096444;28;20900;-66
2022/05/31 04:18:46;;;;;;;3.43;2.80;;;;;;;;;;5096309;28;20512;-63
2022/05/31 04:21:16;;;;;;;6.80;5.00;;;;;;;;;;5096136;28;20414;-64
2022/05/31 04:23:57;;;;;;;15.70;5.70;;;;;;;;;;5096207;28;20417;-63
2022/05/31 04:26:23;;;;;;;23.47;12.27;;;;;;;;;;5096084;28;20407;-64
2022/05/31 04:28:49;;;;;;;36.93;22.50;;;;;;;;;;5096073;28;20468;-63
2022/05/31 04:31:15;;;;;;;3.30;3.00;;;;;;;;;;5095995;28;20405;-64
2022/05/31 04:33:41;;;;;;;3.27;2.60;;;;;;;;;;5096008;28;20768;-64
2022/05/31 04:36:09;;;;;;;3.53;3.30;;;;;;;;;;5095966;28;20417;-64
2022/05/31 04:38:35;;;;;;;3.00;2.90;;;;;;;;;;5095890;28;20531;-64
2022/05/31 04:41:01;;;;;;;4.33;3.83;;;;;;;;;;5095869;28;20413;-64
2022/05/31 04:43:28;;;;;;;3.63;3.53;;;;;;;;;;5095271;28;20794;-64
2022/05/31 04:45:54;;;;;;;4.27;3.37;;;;;;;;;;5095689;28;20970;-64
2022/05/31 04:48:19;;;;;;;3.83;3.50;;;;;;;;;;5077417;28;20477;-64
2022/05/31 04:50:46;;;;;;;3.07;2.97;;;;;;;;;;5077478;28;20919;-63
2022/05/31 04:53:12;;;;;;;3.77;2.77;;;;;;;;;;5095722;28;20420;-64
2022/05/31 04:55:38;;;;;;;3.90;3.67;;;;;;;;;;5095565;28;20405;-64
2022/05/31 04:58:04;;;;;;;3.47;3.17;;;;;;;;;;5095464;28;20451;-63
2022/05/31 05:00:30;;;;;;;4.03;3.67;;;;;;;;;;5095508;28;20398;-64
2022/05/31 05:02:59;;;;;;;3.03;2.90;;;;;;;;;;5095529;28;20877;-64
2022/05/31 05:05:25;;;;;;;3.30;3.20;;;;;;;;;;5095286;28;20406;-64
2022/05/31 05:07:51;;;;;;;4.10;2.73;;;;;;;;;;5095234;28;20405;-63
2022/05/31 05:10:17;;;;;;;3.40;3.30;;;;;;;;;;5095291;28;20818;-64
2022/05/31 05:12:43;;;;;;;3.00;2.90;;;;;;;;;;5095500;28;20405;-63
2022/05/31 05:15:09;;;;;;;3.10;3.00;;;;;;;;;;5076923;28;20482;-64
2022/05/31 05:17:35;;;;;;;4.33;3.47;;;;;;;;;;5095034;28;20413;-64
2022/05/31 05:20:01;;;;;;;3.30;2.97;;;;;;;;;;5095098;28;20504;-64
2022/05/31 05:22:30;;;;;;;4.27;2.83;;;;;;;;;;5094974;28;20417;-62
2022/05/31 05:24:56;;;;;;;3.60;3.30;;;;;;;;;;5095062;28;20435;-62
2022/05/31 05:27:22;;;;;;;3.00;2.90;;;;;;;;;;5094939;28;20417;-64
2022/05/31 05:32:32;;;;;;;3.53;3.33;;;;;;;;;;5094910;28;20843;-64
2022/05/31 05:34:58;;;;;;;5.63;2.97;;;;;;;;;;5095087;28;20439;-65
2022/05/31 05:37:25;;;;;;;3.80;3.60;;;;;;;;;;5094651;28;20797;-65
2022/05/31 05:39:51;;;;;;;3.40;3.20;;;;;;;;;;5094676;28;20876;-65
2022/05/31 05:42:17;;;;;;;4.67;3.57;;;;;;;;;;5094785;28;20435;-64
2022/05/31 05:44:43;;;;;;;3.00;2.80;;;;;;;;;;5094440;28;20548;-66
2022/05/31 05:47:14;;;;;;;6.53;3.30;;;;;;;;;;5094798;28;20536;-67
2022/05/31 05:49:40;;;;;;;3.17;2.97;;;;;;;;;;5094331;28;20468;-66
2022/05/31 05:52:17;;;;;;;3.43;3.23;;;;;;;;;;5094558;28;20472;-66
2022/05/31 05:54:43;;;;;;;3.43;3.13;;;;;;;;;;5077116;28;20861;-66
2022/05/31 05:57:12;;;;;;;3.57;3.47;;;;;;;;;;5094170;28;20896;-67
2022/05/31 05:59:37;;;;;;;3.47;3.13;;;;;;;;;;5094341;28;20425;-67
2022/05/31 06:02:06;;;;;;;5.57;2.97;;;;;;;;;;5094312;28;20413;-66
2022/05/31 06:04:37;;;;;;;3.53;3.23;;;;;;;;;;5094213;28;20408;-67
2022/05/31 06:07:13;;;;;;;4.20;3.07;;;;;;;;;;5094092;28;20504;-67
2022/05/31 06:09:40;;;;;;;3.20;3.10;;;;;;;;;;5094119;28;20468;-65
2022/05/31 06:12:09;;;;;;;3.50;3.17;;;;;;;;;;5075892;28;20417;-64
2022/05/31 06:14:41;;;;;;;2.97;2.87;;;;;;;;;;5075833;28;20429;-64
2022/05/31 06:17:12;;;;;;;2.60;2.50;;;;;;;;;;5093985;28;20881;-66
2022/05/31 06:19:39;;;;;;;3.87;2.73;;;;;;;;;;5094073;28;20458;-66
2022/05/31 06:22:06;;;;;;;4.37;3.07;;;;;;;;;;5093867;28;20413;-65
2022/05/31 06:24:33;;;;;;;3.30;3.20;;;;;;;;;;5093957;28;20766;-66
2022/05/31 06:26:59;;;;;;;3.50;3.30;;;;;;;;;;5093872;28;20424;-65
2022/05/31 06:29:25;;;;;;;3.40;3.20;;;;;;;;;;5093773;28;20480;-64
2022/05/31 06:31:53;;;;;;;3.13;2.83;;;;;;;;;;5093808;28;20411;-65
2022/05/31 06:34:19;;;;;;;2.77;2.67;;;;;;;;;;5093782;28;20427;-64
2022/05/31 06:36:45;;;;;;;2.50;2.40;;;;;;;;;;5093666;28;20500;-64
2022/05/31 06:39:11;;;;;;;2.70;2.43;;;;;;;;;;5093762;28;20459;-65
2022/05/31 06:41:37;;;;;;;3.33;2.60;;;;;;;;;;5093556;28;20814;-67
2022/05/31 06:44:04;;;;;;;7.73;2.40;;;;;;;;;;5093632;28;20908;-66
2022/05/31 06:46:30;;;;;;;4.17;2.87;;;;;;;;;;5075337;28;20847;-66
2022/05/31 06:48:57;;;;;;;3.53;2.50;;;;;;;;;;5093439;28;20460;-65
2022/05/31 06:56:55;;;;;;;3.20;2.53;;;;;;;;;;5093791;28;20452;-65
2022/05/31 06:59:21;;;;;;;2.40;2.20;;;;;;;;;;5093436;28;20441;-64
2022/05/31 07:01:48;;;;;;;4.67;2.33;;;;;;;;;;5093463;28;20412;-65
2022/05/31 07:04:15;;;;;;;2.40;2.30;;;;;;;;;;5093523;28;20424;-65
2022/05/31 07:06:40;;;;;;;2.73;2.20;;;;;;;;;;5094400;28;20517;-65
2022/05/31 07:09:06;;;;;;;3.60;2.40;;;;;;;;;;5097463;28;21032;-65
2022/05/31 07:11:33;;;;;;;4.80;2.13;;;;;;;;;;5097535;28;20407;-65
2022/05/31 07:14:00;;;;;;;2.70;2.60;;;;;;;;;;5097547;28;20515;-65
2022/05/31 07:16:26;;;;;;;2.63;2.40;;;;;;;;;;5097446;28;20901;-64
2022/05/31 07:18:52;;;;;;;2.60;2.40;;;;;;;;;;5078506;28;20491;-64
2022/05/31 07:21:18;;;;;;;3.47;2.10;;;;;;;;;;5096101;28;20410;-64
2022/05/31 07:23:44;;;;;;;2.03;1.93;;;;;;;;;;5095982;28;20418;-64
2022/05/31 07:26:14;;;;;;;3.13;2.40;;;;;;;;;;5096075;28;20401;-63
2022/05/31 07:28:40;;;;;;;2.27;2.17;;;;;;;;;;5096832;28;20466;-64
2022/05/31 07:31:06;;;;;;;2.50;2.40;;;;;;;;;;5097158;28;20900;-64
2022/05/31 07:33:32;;;;;;;2.60;2.40;;;;;;;;;;5078934;28;20420;-64
2022/05/31 07:35:59;;;;;;;3.03;2.47;;;;;;;;;;5096985;28;20942;-64
2022/05/31 07:38:26;;;;;;;1.97;1.97;;;;;;;;;;5096993;28;20881;-64
2022/05/31 07:40:53;;;;;;;2.20;2.00;;;;;;;;;;5097048;28;20408;-64
2022/05/31 07:43:19;;;;;;;2.50;2.30;;;;;;;;;;5097005;28;20492;-65
2022/05/31 07:45:45;;;;;;;1.90;1.80;;;;;;;;;;5096739;28;20525;-64
2022/05/31 07:48:11;;;;;;;2.07;2.07;;;;;;;;;;5096890;28;20912;-65
2022/05/31 07:50:38;;;;;;;2.17;2.07;;;;;;;;;;5096735;28;20509;-65
2022/05/31 07:53:03;;;;;;;2.00;2.00;;;;;;;;;;5096670;28;20454;-65
2022/05/31 07:55:30;;;;;;;2.03;1.93;;;;;;;;;;5078490;28;20432;-64
2022/05/31 08:00:40;;;;;;;2.47;2.40;;;;;;;;;;5096610;28;20515;-65
2022/05/31 08:03:08;;;;;;;2.13;2.03;;;;;;;;;;5096559;28;20498;-64
2022/05/31 08:05:36;;;;;;;2.57;2.47;;;;;;;;;;5078361;28;20519;-64
2022/05/31 08:08:03;;;;;;;2.17;2.03;;;;;;;;;;5096328;28;20553;-64
2022/05/31 08:10:29;;;;;;;2.30;1.77;;;;;;;;;;5096344;28;20458;-64
2022/05/31 08:12:55;;;;;;;2.77;2.57;;;;;;;;;;5096317;28;20394;-64
2022/05/31 08:15:21;;;;;;;2.70;2.30;;;;;;;;;;5096319;28;20497;-64
2022/05/31 08:17:47;;;;;;;2.27;2.17;;;;;;;;;;5095653;28;20400;-64
2022/05/31 08:20:16;;;;;;;2.10;2.00;;;;;;;;;;5077763;28;20504;-64
2022/05/31 08:22:42;;;;;;;1.97;1.87;;;;;;;;;;5096432;28;20772;-63
2022/05/31 08:25:08;;;;;;;2.37;2.10;;;;;;;;;;5096337;28;20416;-64
2022/05/31 08:27:34;;;;;;;2.57;2.13;;;;;;;;;;5096072;28;20892;-64
2022/05/31 08:30:03;;;;;;;2.63;2.00;;;;;;;;;;5077901;28;20533;-64
2022/05/31 08:32:29;;;;;;;2.10;2.00;;;;;;;;;;5096008;28;20399;-65
2022/05/31 08:34:55;;;;;;;3.43;2.20;;;;;;;;;;5095966;28;20421;-65
2022/05/31 08:37:21;;;;;;;2.30;2.10;;;;;;;;;;5095644;28;20419;-69
2022/05/31 08:39:47;;;;;;;2.60;2.40;;;;;;;;;;5095744;28;20394;-69
2022/05/31 08:42:20;;;;;;;2.23;2.13;;;;;;;;;;5095822;28;20423;-67
2022/05/31 08:45:04;;;;;;;2.50;2.30;;;;;;;;;;5077449;28;20454;-67
2022/05/31 08:47:39;;;;;;;6.43;1.77;;;;;;;;;;5095786;28;20776;-69
2022/05/31 08:53:21;;;;;;;3.33;1.77;;;;;;;;;;5095634;28;20415;-73
2022/05/31 08:58:41;;;;;;;1.87;1.77;;;;;;;;;;5095795;28;20417;-69
2022/05/31 09:01:09;;;;;;;1.67;1.53;;;;;;;;;;5077325;28;20422;-82
2022/05/31 09:03:42;;;;;;;3.87;1.73;;;;;;;;;;5095264;28;20434;-67
2022/05/31 09:06:10;;;;;;;1.93;1.80;;;;;;;;;;5095224;28;20976;-69
2022/05/31 09:08:39;;;;;;;1.90;1.80;;;;;;;;;;5095218;28;20470;-69
2022/05/31 09:11:20;;;;;;;1.87;1.77;;;;;;;;;;5095250;28;20495;-67
2022/05/31 09:14:21;;;;;;;3.90;1.73;;;;;;;;;;5095178;28;20438;-68
2022/05/31 09:16:49;;;;;;;1.90;1.80;;;;;;;;;;4996682;28;20509;-66
2022/05/31 09:19:34;;;;;;;2.70;1.70;;;;;;;;;;5056521;28;20794;-71
2022/05/31 09:22:03;;;;;;;1.90;1.80;;;;;;;;;;5095024;28;20986;-71
2022/05/31 09:24:29;;;;;;;1.70;1.60;;;;;;;;;;5094946;28;20410;-70
2022/05/31 09:27:06;;;;;;;2.63;1.63;;;;;;;;;;5094949;28;20473;-70
2022/05/31 09:29:52;;;;;;;3.03;1.90;;;;;;;;;;5094598;28;20501;-73
2022/05/31 09:32:37;;;;;;;12.30;2.63;;;;;;;;;;5094801;28;20407;-71
2022/05/31 09:35:16;;;;;;;8.03;1.90;;;;;;;;;;5076649;28;20410;-71
2022/05/31 09:37:55;;;;;;;11.90;2.00;;;;;;;;;;5094681;28;20411;-70
2022/05/31 09:40:30;;;;;;;4.43;1.80;;;;;;;;;;5094732;28;20423;-69
2022/05/31 09:43:06;;;;;;;3.23;1.67;;;;;;;;;;5094691;28;20413;-72
2022/05/31 09:45:33;;;;;;;3.50;1.70;;;;;;;;;;5094681;28;20547;-71
2022/05/31 09:48:01;;;;;;;1.83;1.70;;;;;;;;;;5094522;28;20412;-71
2022/05/31 09:50:28;;;;;;;3.27;1.97;;;;;;;;;;5094522;28;20503;-75
2022/05/31 09:52:58;;;;;;;3.07;1.60;;;;;;;;;;5094474;28;20422;-71
2022/05/31 09:58:26;;;;;;;2.60;1.40;;;;;;;;;;5094563;28;20414;-70
2022/05/31 10:01:01;;;;;;;3.00;1.70;;;;;;;;;;5094427;28;20414;-69
2022/05/31 10:03:39;;;;;;;4.60;1.80;;;;;;;;;;5076329;28;20912;-72
2022/05/31 10:06:07;;;;;;;6.70;1.70;;;;;;;;;;5094231;28;20402;-70
2022/05/31 10:08:34;;;;;;;3.63;1.47;;;;;;;;;;5094219;28;20462;-70
2022/05/31 10:11:05;;;;;;;4.40;1.80;;;;;;;;;;5094215;28;20539;-68
2022/05/31 10:13:58;;;;;;;1.80;1.60;;;;;;;;;;5094182;28;20438;-66
2022/05/31 10:16:25;;;;;;;2.90;1.77;;;;;;;;;;5090511;28;20433;-68
2022/05/31 10:18:53;;;;;;;2.30;1.40;;;;;;;;;;5076017;28;20418;-69
2022/05/31 10:21:42;;;;;;;2.30;2.10;;;;;;;;;;5075835;28;20411;-67
2022/05/31 10:24:15;;;;;;;2.40;1.60;;;;;;;;;;5083429;28;20439;-68
2022/05/31 10:26:42;;;;;;;1.73;1.40;;;;;;;;;;5093975;28;20411;-71
2022/05/31 10:29:12;;;;;;;5.33;1.60;;;;;;;;;;5093826;28;21014;-71
2022/05/31 10:31:39;;;;;;;2.13;1.90;;;;;;;;;;5075775;28;20421;-67
2022/05/31 10:34:07;;;;;;;2.00;1.90;;;;;;;;;;5093805;28;20401;-68
2022/05/31 10:36:47;;;;;;;1.60;1.50;;;;;;;;;;5093740;28;20408;-71
2022/05/31 10:39:18;;;;;;;8.03;1.80;;;;;;;;;;5093718;28;20764;-71
2022/05/31 10:41:44;;;;;;;2.00;1.53;;;;;;;;;;5093202;28;20460;-75
2022/05/31 10:44:15;;;;;;;3.73;1.80;;;;;;;;;;5093737;28;20403;-71
2022/05/31 10:46:44;;;;;;;1.53;1.43;;;;;;;;;;5072005;28;20463;-74
2022/05/31 10:49:18;;;;;;;1.63;1.53;;;;;;;;;;5073229;28;20473;-73
2022/05/31 10:51:59;;;;;;;2.20;2.10;;;;;;;;;;5075443;28;20432;-73
2022/05/31 10:54:44;;;;;;;1.50;1.40;;;;;;;;;;5093619;28;20452;-69
2022/05/31 10:57:29;;;;;;;1.80;1.70;;;;;;;;;;5093545;28;20787;-74
2022/05/31 10:59:58;;;;;;;6.50;2.70;;;;;;;;;;5093509;28;20430;-73
2022/05/31 11:02:34;;;;;;;4.93;1.80;;;;;;;;;;5093460;28;20406;-70
2022/05/31 11:05:06;;;;;;;2.30;1.73;;;;;;;;;;5093465;28;20405;-68
2022/05/31 11:07:38;;;;;;;5.13;1.73;;;;;;;;;;5093311;28;20422;-70
2022/05/31 11:13:00;;;;;;;1.60;1.53;;;;;;;;;;5093411;28;20706;-67
2022/05/31 11:15:26;;;;;;;9.83;2.40;;;;;;;;;;5075229;28;20419;-68
2022/05/31 11:17:57;;;;;;;1.73;1.63;;;;;;;;;;5093341;28;20414;-69
2022/05/31 11:20:30;;;;;;;1.57;1.47;;;;;;;;;;5093264;28;20902;-68
2022/05/31 11:22:59;;;;;;;1.83;1.73;;;;;;;;;;5093346;28;20446;-70
2022/05/31 11:25:38;;;;;;;2.40;1.73;;;;;;;;;;5093263;28;20543;-70
2022/05/31 11:28:23;;;;;;;3.27;1.90;;;;;;;;;;5093762;28;20483;-69
2022/05/31 11:31:08;;;;;;;6.73;1.90;;;;;;;;;;5075398;28;20494;-72
2022/05/31 11:33:53;;;;;;;2.20;2.10;;;;;;;;;;5094513;28;20407;-72
2022/05/31 11:36:42;;;;;;;2.60;1.60;;;;;;;;;;5094022;28;20425;-66
2022/05/31 11:39:31;;;;;;;1.70;1.60;;;;;;;;;;5078948;28;20432;-69
2022/05/31 11:42:16;;;;;;;4.23;2.17;;;;;;;;;;5093624;28;20961;-66
2022/05/31 11:44:54;;;;;;;3.43;1.30;;;;;;;;;;5093848;28;20472;-66
2022/05/31 11:47:34;;;;;;;1.30;1.20;;;;;;;;;;5075865;28;20789;-64
2022/05/31 11:50:00;;;;;;;1.27;1.17;;;;;;;;;;5093269;28;20463;-69
2022/05/31 11:52:29;;;;;;;1.20;1.20;;;;;;;;;;5075094;28;20420;-68
2022/05/31 11:57:48;;;;;;;2.63;1.63;;;;;;;;;;5097510;28;20407;-65
2022/05/31 12:00:18;;;;;;;3.27;1.60;;;;;;;;;;5078678;28;20479;-66
2022/05/31 12:02:54;;;;;;;1.67;1.47;;;;;;;;;;5078866;28;20478;-65
2022/05/31 12:05:22;;;;;;;2.97;1.27;;;;;;;;;;5078976;28;20428;-65
2022/05/31 12:08:00;;;;;;;5.10;1.27;;;;;;;;;;5078911;28;20470;-65
2022/05/31 12:10:28;;;;;;;32.67;1.90;;;;;;;;;;5078297;28;20445;-64
2022/05/31 12:12:57;;;;;;;1.50;1.37;;;;;;;;;;5096461;28;20464;-65
2022/05/31 12:15:25;;;;;;;4.00;1.50;;;;;;;;;;5096459;28;20398;-67
2022/05/31 12:17:55;;;;;;;1.47;1.10;;;;;;;;;;5078158;28;20425;-65
2022/05/31 12:20:24;;;;;;;1.60;1.40;;;;;;;;;;5078053;28;20425;-66
2022/05/31 12:23:13;;;;;;;4.10;1.30;;;;;;;;;;5096283;28;20422;-66
2022/05/31 12:25:44;;;;;;;2.30;1.20;;;;;;;;;;5058662;28;20429;-67
2022/05/31 12:28:10;;;;;;;4.17;1.80;;;;;;;;;;5096083;28;20841;-66
2022/05/31 12:30:45;;;;;;;2.63;1.20;;;;;;;;;;5096087;28;20516;-66
2022/05/31 12:33:33;;;;;;;3.80;1.70;;;;;;;;;;5096143;28;20404;-65
2022/05/31 12:35:59;;;;;;;3.40;1.40;;;;;;;;;;5096168;28;20408;-65
2022/05/31 12:38:25;;;;;;;4.07;1.37;;;;;;;;;;5078158;28;20493;-65
2022/05/31 12:40:53;;;;;;;1.47;1.37;;;;;;;;;;5078238;28;20421;-64
2022/05/31 12:43:37;;;;;;;5.33;1.27;;;;;;;;;;5096258;28;20899;-65
2022/05/31 12:46:23;;;;;;;1.57;1.47;;;;;;;;;;5095825;28;20494;-65
2022/05/31 12:48:59;;;;;;;3.50;1.33;;;;;;;;;;5095970;28;20466;-66
2022/05/31 12:51:25;;;;;;;5.60;1.30;;;;;;;;;;5095870;28;20411;-66
2022/05/31 12:53:51;;;;;;;4.87;1.40;;;;;;;;;;5077799;28;20418;-66
2022/05/31 12:56:37;;;;;;;1.40;1.30;;;;;;;;;;5095112;28;20408;-66
2022/05/31 12:59:04;;;;;;;10.60;1.40;;;;;;;;;;5095786;28;20399;-65
2022/05/31 13:01:30;;;;;;;1.60;1.50;;;;;;;;;;5095396;28;20469;-64
2022/05/31 13:04:10;;;;;;;1.40;1.40;;;;;;;;;;5094931;28;20410;-64
2022/05/31 13:06:40;;;;;;;6.03;1.33;;;;;;;;;;5094655;28;20895;-63
2022/05/31 13:09:11;;;;;;;1.10;1.10;;;;;;;;;;5095111;28;20534;-66
2022/05/31 13:20:26;;;;;;;1.07;1.03;;;;;;;;;;5095089;28;20881;-64
2022/05/31 13:23:13;;;;;;;3.13;1.50;;;;;;;;;;5094912;28;20414;-62
2022/05/31 13:25:39;;;;;;;1.40;1.40;;;;;;;;;;5081048;28;20934;-64
2022/05/31 13:28:05;;;;;;;1.50;1.30;;;;;;;;;;5095005;28;20404;-64
2022/05/31 13:30:33;;;;;;;1.33;1.03;;;;;;;;;;5094814;28;20421;-64
2022/05/31 13:33:08;;;;;;;1.30;1.10;;;;;;;;;;5094292;28;20406;-64
2022/05/31 13:35:34;;;;;;;2.33;1.17;;;;;;;;;;5093853;28;20960;-64
2022/05/31 13:38:02;;;;;;;2.30;1.43;;;;;;;;;;5076841;28;20417;-64
2022/05/31 13:40:34;;;;;;;1.30;1.20;;;;;;;;;;5093863;28;20474;-65
2022/05/31 13:43:01;;;;;;;2.10;0.90;;;;;;;;;;5094359;28;20448;-65
2022/05/31 13:45:28;;;;;;;2.00;1.30;;;;;;;;;;5094317;28;20518;-65
2022/05/31 13:47:56;;;;;;;3.80;1.27;;;;;;;;;;5094196;28;20407;-65
2022/05/31 13:50:24;;;;;;;1.07;0.97;;;;;;;;;;5094162;28;20427;-65
2022/05/31 13:52:51;;;;;;;1.13;0.90;;;;;;;;;;5094108;28;20439;-64
2022/05/31 13:55:23;;;;;;;2.67;1.03;;;;;;;;;;5076060;28;20436;-64
2022/05/31 13:58:00;;;;;;;2.93;1.00;;;;;;;;;;5094383;28;20409;-64
2022/05/31 14:00:33;;;;;;;1.63;1.20;;;;;;;;;;5094000;28;20435;-64
2022/05/31 14:03:05;;;;;;;0.70;0.70;;;;;;;;;;5094303;28;20921;-64
2022/05/31 14:05:34;;;;;;;1.10;1.00;;;;;;;;;;5094333;28;20497;-64
2022/05/31 14:08:01;;;;;;;1.00;1.00;;;;;;;;;;5094143;28;20413;-65
2022/05/31 14:10:29;;;;;;;1.87;1.17;;;;;;;;;;5094218;28;20795;-65
2022/05/31 14:13:00;;;;;;;1.43;1.17;;;;;;;;;;5094124;28;20406;-64
2022/05/31 14:15:30;;;;;;;1.57;1.47;;;;;;;;;;5075792;28;20460;-64
2022/05/31 14:18:10;;;;;;;1.30;1.20;;;;;;;;;;5093609;28;20473;-64
2022/05/31 14:20:37;;;;;;;1.00;1.00;;;;;;;;;;5094069;28;20402;-65
2022/05/31 14:23:09;;;;;;;2.10;1.10;;;;;;;;;;5094201;28;20468;-64
2022/05/31 14:25:35;;;;;;;0.90;0.90;;;;;;;;;;5093995;28;20399;-64
2022/05/31 14:28:02;;;;;;;0.90;0.90;;;;;;;;;;5093885;28;20885;-65
2022/05/31 14:30:34;;;;;;;1.10;1.00;;;;;;;;;;5075637;28;20440;-64
2022/05/31 14:33:02;;;;;;;0.83;0.83;;;;;;;;;;5075727;28;20432;-65
2022/05/31 14:35:36;;;;;;;2.10;0.90;;;;;;;;;;5094021;28;20435;-64
2022/05/31 14:38:06;;;;;;;1.30;1.17;;;;;;;;;;5093766;28;20414;-64
2022/05/31 14:40:35;;;;;;;2.43;2.17;;;;;;;;;;5093733;28;20414;-65
2022/05/31 14:43:04;;;;;;;4.47;1.00;;;;;;;;;;5093781;28;20408;-64
2022/05/31 14:45:31;;;;;;;0.70;0.70;;;;;;;;;;5093577;28;20496;-65
2022/05/31 14:47:57;;;;;;;6.33;1.00;;;;;;;;;;5093641;28;20822;-64
2022/05/31 14:50:29;;;;;;;1.80;0.97;;;;;;;;;;5093606;28;20418;-65
2022/05/31 14:52:56;;;;;;;1.17;1.17;;;;;;;;;;5093483;28;20981;-65
2022/05/31 14:55:22;;;;;;;2.33;1.17;;;;;;;;;;5093628;28;20397;-65
2022/05/31 15:00:53;;;;;;;2.87;0.97;;;;;;;;;;5093555;28;20438;-64
2022/05/31 15:03:30;;;;;;;3.80;1.00;;;;;;;;;;5093545;28;20484;-65
2022/05/31 15:06:01;;;;;;;6.33;1.10;;;;;;;;;;5093380;28;20819;-65
2022/05/31 15:08:31;;;;;;;1.70;0.70;;;;;;;;;;5093289;28;20618;-64
2022/05/31 15:18:56;;;;;;;1.97;1.00;;;;;;;;;;5093412;28;20414;-65
2022/05/31 15:19:12;;;;;;;3.60;1.37;;;;;;;;;;5093403;28;20422;-65
2022/05/31 15:21:40;;;;;;;3.27;1.17;;;;;;;;;;5093246;28;20894;-65
2022/05/31 15:24:08;;;;;;;17.17;1.87;;;;;;;;;;5093352;28;20404;-65
2022/05/31 15:26:34;;;;;;;4.50;1.60;;;;;;;;;;5093223;28;20404;-65
2022/05/31 15:29:00;;;;;;;3.33;1.53;;;;;;;;;;5096542;28;20478;-64
2022/05/31 15:31:34;;;;;;;1.40;1.30;;;;;;;;;;5097275;28;20403;-65
2022/05/31 15:34:00;;;;;;;1.40;1.33;;;;;;;;;;5097220;28;20410;-65
2022/05/31 15:36:27;;;;;;;2.50;1.17;;;;;;;;;;5097030;28;20949;-64
2022/05/31 15:38:54;;;;;;;2.60;1.10;;;;;;;;;;5079040;28;20437;-64
2022/05/31 15:41:20;;;;;;;1.00;0.97;;;;;;;;;;5097046;28;20411;-64